Time;durP1;ratioP1;P1;durP2;ratioP2;P2;SDS_P1;SDS_P2;PMS_P1;PMS_P2;Temp;Humidity;BMP_temperature;BMP_pressure;BME280_temperature;BME280_humidity;BME280_pressure;Samples;Min_cycle;Max_cycle;Signal;HPM_P1;HPM_P2
2022/04/25 00:01:37;;;;;;;;;1.00;1.00;;;;;19.77;42.58;101075.31;5100893;28;8780;-71
2022/04/25 00:04:03;;;;;;;;;2.75;2.75;;;;;19.76;42.63;101070.88;5090618;28;8771;-71
2022/04/25 00:06:28;;;;;;;;;1.75;1.75;;;;;19.74;42.50;101070.94;5089763;28;8898;-70
2022/04/25 00:08:54;;;;;;;;;2.00;2.00;;;;;19.74;42.71;101070.06;5090190;28;9747;-69
2022/04/25 00:11:19;;;;;;;;;2.00;2.00;;;;;19.73;42.71;101068.28;5090659;28;8796;-70
2022/04/25 00:13:44;;;;;;;;;2.50;2.50;;;;;19.70;42.60;101071.88;5101394;28;8825;-70
2022/04/25 00:16:09;;;;;;;;;1.25;1.25;;;;;19.71;42.54;101068.31;5110931;28;8880;-71
2022/04/25 00:18:35;;;;;;;;;3.00;2.00;;;;;19.68;42.63;101062.19;5110543;28;8844;-70
2022/04/25 00:21:00;;;;;;;;;2.75;2.00;;;;;19.70;42.71;101065.69;5109856;28;8765;-69
2022/04/25 00:23:26;;;;;;;;;1.50;1.50;;;;;19.71;42.67;101062.16;5110869;28;8785;-70
2022/04/25 00:25:51;;;;;;;;;2.00;2.00;;;;;19.69;42.43;101062.16;5110422;28;8785;-70
2022/04/25 00:28:17;;;;;;;;;1.00;1.00;;;;;19.69;42.48;101066.56;5109933;28;8870;-71
2022/04/25 00:30:42;;;;;;;;;2.00;1.25;;;;;19.67;42.43;101065.72;5110726;28;8774;-70
2022/04/25 00:33:07;;;;;;;;;1.00;1.00;;;;;19.68;42.60;101065.69;5110070;28;8809;-71
2022/04/25 00:35:32;;;;;;;;;1.25;1.25;;;;;19.67;42.66;101063.06;5109824;28;8993;-71
2022/04/25 00:37:58;;;;;;;;;1.00;1.00;;;;;19.68;42.49;101072.78;5110035;28;8800;-70
2022/04/25 00:40:24;;;;;;;;;1.75;1.00;;;;;19.67;42.66;101063.06;5110734;28;8777;-70
2022/04/25 00:42:50;;;;;;;;;2.00;2.00;;;;;19.66;42.63;101058.66;5109370;28;8777;-70
2022/04/25 00:45:16;;;;;;;;;1.00;1.00;;;;;19.66;42.28;101061.31;5110270;28;10412;-70
2022/04/25 00:47:42;;;;;;;;;2.00;2.00;;;;;19.64;42.50;101066.66;5110406;28;9633;-70
2022/04/25 00:50:09;;;;;;;;;1.00;1.00;;;;;19.65;42.51;101064.84;5109068;28;9532;-70
2022/04/25 00:52:35;;;;;;;;;1.00;1.00;;;;;19.63;42.76;101058.72;5110567;28;9604;-70
2022/04/25 00:55:01;;;;;;;;;1.25;1.25;;;;;19.64;42.78;101068.41;5111240;28;9647;-70
2022/04/25 00:57:27;;;;;;;;;2.00;2.00;;;;;19.62;42.66;101062.25;5114419;28;9616;-71
2022/04/25 00:59:56;;;;;;;;;2.75;2.75;;;;;19.62;42.59;101059.59;5114559;28;9463;-70
2022/04/25 01:02:21;;;;;;;;;2.25;2.25;;;;;19.62;42.60;101056.94;5098151;28;8791;-70
2022/04/25 01:04:47;;;;;;;;;1.50;1.50;;;;;19.61;42.49;101058.72;5093126;28;9655;-69
2022/04/25 01:07:12;;;;;;;;;3.00;3.00;;;;;19.61;42.54;101052.53;5094270;28;8795;-70
2022/04/25 01:09:38;;;;;;;;;3.00;3.00;;;;;19.61;42.64;101050.75;5093687;28;8764;-69
2022/04/25 01:12:03;;;;;;;;;2.00;2.00;;;;;19.60;42.58;101051.69;5093565;28;9547;-71
2022/04/25 01:14:29;;;;;;;;;4.25;4.00;;;;;19.60;42.79;101054.34;5112004;28;8848;-70
2022/04/25 01:16:54;;;;;;;;;2.50;2.50;;;;;19.59;42.65;101052.56;5113241;28;9551;-70
2022/04/25 01:19:20;;;;;;;;;1.75;1.75;;;;;19.58;42.40;101053.47;5113853;28;8806;-70
2022/04/25 01:21:57;;;;;;;;;0.75;0.75;;;;;19.56;42.65;101055.25;5114167;28;8786;-70
2022/04/25 01:27:16;;;;;;;;;2.00;2.00;;;;;19.56;42.66;101047.31;5113615;28;9599;-70
2022/04/25 01:29:47;;;;;;;;;2.00;2.00;;;;;19.57;42.50;101051.69;5113877;28;9705;-69
2022/04/25 01:32:13;;;;;;;;;2.75;2.00;;;;;19.57;42.72;101048.19;5113059;28;9598;-70
2022/04/25 01:34:38;;;;;;;;;2.75;2.00;;;;;19.56;42.47;101049.97;5113852;28;9441;-70
2022/04/25 01:37:06;;;;;;;;;2.25;2.25;;;;;19.55;42.75;101042.91;5114072;28;9476;-70
2022/04/25 01:39:37;;;;;;;;;2.25;2.25;;;;;19.55;42.55;101042.03;5113457;28;9529;-70
2022/04/25 01:42:04;;;;;;;;;3.00;3.00;;;;;19.55;42.71;101039.38;5114076;28;9442;-70
2022/04/25 01:44:29;;;;;;;;;2.75;1.00;;;;;19.53;42.51;101039.38;5113735;28;9393;-69
2022/04/25 01:46:55;;;;;;;;;2.25;2.25;;;;;19.54;42.67;101042.91;5112530;28;9501;-69
2022/04/25 01:49:20;;;;;;;;;2.00;2.00;;;;;19.53;42.67;101042.03;5113851;28;8781;-69
2022/04/25 01:51:46;;;;;;;;;3.50;2.50;;;;;19.55;42.56;101053.50;5113197;28;8830;-71
2022/04/25 01:54:12;;;;;;;;;3.25;2.00;;;;;19.53;42.83;101041.19;5112070;28;8829;-70
2022/04/25 01:56:38;;;;;;;;;1.75;1.75;;;;;19.53;42.61;101047.31;5113460;28;9517;-69
2022/04/25 01:59:04;;;;;;;;;3.00;3.00;;;;;19.53;42.79;101041.19;5112186;28;9535;-69
2022/04/25 02:01:32;;;;;;;;;2.00;1.00;;;;;19.52;42.51;101042.94;5104474;28;9698;-69
2022/04/25 02:03:57;;;;;;;;;3.00;2.50;;;;;19.52;42.49;101037.66;5092537;28;8782;-70
2022/04/25 02:06:22;;;;;;;;;1.00;1.00;;;;;19.51;42.73;101040.31;5090833;28;9726;-70
2022/04/25 02:08:48;;;;;;;;;2.00;2.00;;;;;19.51;42.59;101043.84;5092315;28;8784;-69
2022/04/25 02:11:19;;;;;;;;;3.25;2.00;;;;;19.50;42.76;101039.44;5092736;28;8885;-70
2022/04/25 02:13:45;;;;;;;;;3.25;3.00;;;;;19.50;42.46;101044.72;5103124;28;8889;-71
2022/04/25 02:16:11;;;;;;;;;4.50;2.75;;;;;19.51;42.66;101042.97;5113044;28;9606;-70
2022/04/25 02:18:37;;;;;;;;;5.00;3.50;;;;;19.49;42.63;101037.69;5112724;28;9663;-70
2022/04/25 02:21:02;;;;;;;;;2.00;2.00;;;;;19.48;42.57;101037.69;5111952;28;10605;-70
2022/04/25 02:23:28;;;;;;;;;2.00;2.00;;;;;19.48;42.85;101037.69;5112872;28;9939;-70
2022/04/25 02:25:53;;;;;;;;;3.75;3.00;;;;;19.48;42.55;101035.06;5112558;28;8783;-70
2022/04/25 02:28:18;;;;;;;;;4.00;3.50;;;;;19.47;42.58;101034.16;5111940;28;8789;-71
2022/04/25 02:30:43;;;;;;;;;1.00;1.00;;;;;19.46;42.71;101031.56;5112826;28;8774;-70
2022/04/25 02:33:11;;;;;;;;;1.75;1.75;;;;;19.47;42.61;101031.53;5112654;28;8810;-70
2022/04/25 02:35:36;;;;;;;;;2.00;2.00;;;;;19.48;42.64;101029.75;5111909;28;8799;-70
2022/04/25 02:38:02;;;;;;;;;3.00;3.00;;;;;19.46;42.79;101034.22;5112508;28;10272;-70
2022/04/25 02:40:27;;;;;;;;;2.00;1.75;;;;;19.47;42.51;101035.94;5112402;28;8781;-70
2022/04/25 02:42:52;;;;;;;;;2.75;2.75;;;;;19.45;42.79;101037.75;5111314;28;8905;-70
2022/04/25 02:45:18;;;;;;;;;2.00;2.00;;;;;19.45;42.68;101033.34;5112714;28;8769;-70
2022/04/25 02:47:44;;;;;;;;;3.25;3.25;;;;;19.45;42.73;101032.44;5112502;28;8770;-70
2022/04/25 02:50:09;;;;;;;;;3.75;3.00;;;;;19.45;42.66;101033.34;5111663;28;8757;-70
2022/04/25 02:52:34;;;;;;;;;3.75;3.75;;;;;19.45;42.67;101043.03;5112532;28;9695;-70
2022/04/25 02:55:00;;;;;;;;;2.00;2.00;;;;;19.44;42.73;101033.34;5111933;28;8874;-69
2022/04/25 02:57:25;;;;;;;;;3.00;3.00;;;;;19.45;42.62;101032.44;5111662;28;8788;-69
2022/04/25 02:59:50;;;;;;;;;3.00;2.75;;;;;19.44;42.46;101042.16;5111882;28;8797;-69
2022/04/25 03:02:16;;;;;;;;;3.25;3.25;;;;;19.42;42.68;101036.00;5096009;28;8787;-70
2022/04/25 03:04:41;;;;;;;;;5.50;3.25;;;;;19.43;42.84;101042.16;5091885;28;8779;-69
2022/04/25 03:07:06;;;;;;;;;2.00;2.00;;;;;19.44;42.48;101046.56;5091433;28;8775;-69
2022/04/25 03:09:32;;;;;;;;;3.00;3.00;;;;;19.43;42.79;101051.00;5091094;28;8804;-69
2022/04/25 03:11:58;;;;;;;;;2.75;2.75;;;;;19.43;42.73;101048.34;5090989;28;8779;-69
2022/04/25 03:14:25;;;;;;;;;1.00;1.00;;;;;19.40;42.83;101042.16;5108646;28;8806;-69
2022/04/25 03:16:50;;;;;;;;;2.75;2.75;;;;;19.42;42.70;101046.56;5110755;28;9796;-70
2022/04/25 03:19:19;;;;;;;;;2.25;2.25;;;;;19.41;42.85;101047.47;5111009;28;10297;-71
2022/04/25 03:21:48;;;;;;;;;5.25;5.25;;;;;19.42;42.76;101045.72;5111647;28;8801;-70
2022/04/25 03:24:13;;;;;;;;;3.75;3.75;;;;;19.42;42.64;101048.38;5111757;28;9616;-70
2022/04/25 03:26:39;;;;;;;;;3.00;3.00;;;;;19.42;42.88;101049.22;5112014;28;9551;-69
2022/04/25 03:29:05;;;;;;;;;2.50;2.50;;;;;19.41;42.62;101043.94;5111954;28;8876;-69
2022/04/25 03:31:30;;;;;;;;;2.75;2.75;;;;;19.41;42.84;101043.94;5111561;28;9658;-70
2022/04/25 03:33:56;;;;;;;;;4.00;2.75;;;;;19.40;42.77;101045.69;5111863;28;8916;-70
2022/04/25 03:36:21;;;;;;;;;3.00;3.00;;;;;19.38;42.71;101039.56;5111938;28;8765;-70
2022/04/25 03:38:46;;;;;;;;;2.00;2.00;;;;;19.38;42.82;101034.25;5110950;28;8777;-70
2022/04/25 03:41:12;;;;;;;;;2.75;2.75;;;;;19.38;42.82;101036.91;5111783;28;8769;-70
2022/04/25 03:43:37;;;;;;;;;3.75;3.25;;;;;19.38;42.52;101028.97;5111646;28;8900;-70
2022/04/25 03:46:02;;;;;;;;;2.50;2.50;;;;;19.38;42.78;101026.31;5110891;28;8804;-70
2022/04/25 03:48:28;;;;;;;;;2.25;2.25;;;;;19.38;42.91;101031.63;5111545;28;8774;-70
2022/04/25 03:50:53;;;;;;;;;1.75;1.75;;;;;19.39;42.71;101027.16;5111645;28;8782;-70
2022/04/25 03:53:19;;;;;;;;;2.75;2.75;;;;;19.38;42.66;101026.31;5110774;28;8809;-70
2022/04/25 03:58:30;;;;;;;;;3.00;3.00;;;;;19.38;42.51;101038.69;5111387;28;9437;-72
2022/04/25 04:00:58;;;;;;;;;3.00;2.00;;;;;19.37;42.57;101040.44;5106488;28;9555;-72
2022/04/25 04:03:24;;;;;;;;;2.00;2.00;;;;;19.37;42.66;101036.91;5090820;28;9497;-71
2022/04/25 04:05:50;;;;;;;;;5.00;3.25;;;;;19.37;42.73;101048.38;5089515;28;9415;-71
2022/04/25 04:08:16;;;;;;;;;3.00;3.00;;;;;19.38;42.86;101043.97;5090627;28;8803;-70
2022/04/25 04:10:44;;;;;;;;;3.00;3.00;;;;;19.36;42.74;101045.75;5090937;28;9555;-69
2022/04/25 04:13:09;;;;;;;;;4.00;3.00;;;;;19.37;42.71;101050.16;5096704;28;8801;-70
2022/04/25 04:15:35;;;;;;;;;3.00;2.00;;;;;19.36;42.76;101046.63;5110777;28;9568;-70
2022/04/25 04:18:00;;;;;;;;;3.00;3.00;;;;;19.35;42.97;101044.88;5110512;28;8825;-70
2022/04/25 04:20:26;;;;;;;;;3.00;3.00;;;;;19.36;42.81;101054.56;5110146;28;8804;-70
2022/04/25 04:22:51;;;;;;;;;3.00;3.00;;;;;19.35;42.80;101050.16;5110306;28;8773;-69
2022/04/25 04:25:16;;;;;;;;;3.00;2.50;;;;;19.34;42.79;101043.13;5110364;28;9474;-69
2022/04/25 04:27:42;;;;;;;;;3.50;2.25;;;;;19.31;42.74;101054.63;5110005;28;8826;-70
2022/04/25 04:30:10;;;;;;;;;2.00;2.00;;;;;19.34;42.92;101044.91;5109552;28;8762;-71
2022/04/25 04:32:38;;;;;;;;;2.00;2.00;;;;;19.34;43.02;101052.84;5110362;28;9547;-71
2022/04/25 04:35:06;;;;;;;;;3.75;2.75;;;;;19.34;42.98;101044.91;5109288;28;9725;-71
2022/04/25 04:37:33;;;;;;;;;1.00;1.00;;;;;19.34;42.92;101050.19;5110010;28;9609;-71
2022/04/25 04:42:44;;;;;;;;;2.00;2.00;;;;;19.34;42.67;101056.38;5109532;28;9594;-71
2022/04/25 04:45:11;;;;;;;;;3.75;2.75;;;;;19.31;42.90;101051.97;5110227;28;9532;-71
2022/04/25 04:47:39;;;;;;;;;3.75;3.00;;;;;19.32;42.79;101055.50;5110419;28;8774;-72
2022/04/25 04:50:07;;;;;;;;;2.00;2.00;;;;;19.31;42.80;101049.31;5109086;28;10200;-71
2022/04/25 04:52:32;;;;;;;;;3.00;3.00;;;;;19.31;42.84;101053.72;5110436;28;9601;-71
2022/04/25 04:54:58;;;;;;;;;3.50;2.50;;;;;19.31;42.95;101070.50;5109378;28;9567;-71
2022/04/25 04:57:23;;;;;;;;;4.00;3.25;;;;;19.32;42.87;101079.31;5110140;28;8869;-71
2022/04/25 04:59:48;;;;;;;;;3.00;3.00;;;;;19.30;42.97;101075.81;5109982;28;8793;-71
2022/04/25 05:02:17;;;;;;;;;4.00;3.00;;;;;19.32;43.01;101087.25;5094199;28;8812;-71
2022/04/25 05:04:46;;;;;;;;;2.00;2.00;;;;;19.31;43.03;101088.16;5090400;28;8786;-71
2022/04/25 05:07:12;;;;;;;;;3.00;3.00;;;;;19.29;42.98;101093.47;5089941;28;9650;-71
2022/04/25 05:09:37;;;;;;;;;2.50;2.50;;;;;19.29;42.93;101096.13;5089033;28;9775;-71
2022/04/25 05:12:03;;;;;;;;;3.00;3.00;;;;;19.31;42.90;101088.16;5089576;28;8800;-71
2022/04/25 05:14:28;;;;;;;;;2.00;2.00;;;;;19.29;42.81;101095.25;5107446;28;8813;-71
2022/04/25 05:16:55;;;;;;;;;3.00;1.75;;;;;19.30;43.03;101100.53;5109179;28;8762;-71
2022/04/25 05:19:21;;;;;;;;;4.25;3.25;;;;;19.29;42.91;101101.41;5109943;28;8809;-70
2022/04/25 05:21:47;;;;;;;;;1.00;1.00;;;;;19.29;42.88;101095.25;5109767;28;9496;-71
2022/04/25 05:24:12;;;;;;;;;1.00;1.00;;;;;19.29;43.04;101114.66;5109415;28;9650;-70
2022/04/25 05:26:37;;;;;;;;;1.50;1.50;;;;;19.28;43.01;101107.59;5110292;28;8821;-71
2022/04/25 05:29:03;;;;;;;;;2.00;2.00;;;;;19.27;42.92;101105.84;5091366;28;8828;-72
2022/04/25 05:31:28;;;;;;;;;2.00;2.00;;;;;19.29;42.95;101111.13;5109264;28;8784;-71
2022/04/25 05:33:54;;;;;;;;;4.00;3.00;;;;;19.28;43.23;101112.91;5109631;28;8793;-70
2022/04/25 05:36:22;;;;;;;;;2.00;2.00;;;;;19.29;43.09;101112.00;5109893;28;8769;-70
2022/04/25 05:38:47;;;;;;;;;3.00;3.00;;;;;19.27;42.98;101116.44;5108966;28;9571;-71
2022/04/25 05:41:13;;;;;;;;;2.00;2.00;;;;;19.25;42.98;101112.94;5111376;28;9543;-71
2022/04/25 05:43:39;;;;;;;;;2.25;2.25;;;;;19.28;43.16;101126.13;5113553;28;8785;-71
2022/04/25 05:46:06;;;;;;;;;2.00;2.00;;;;;19.26;43.24;101127.94;5113030;28;8781;-71
2022/04/25 05:54:03;;;;;;;;;2.00;2.00;;;;;19.26;43.35;101141.16;5113511;28;9549;-72
2022/04/25 05:56:28;;;;;;;;;2.50;2.50;;;;;19.28;43.18;101141.13;5113572;28;9564;-71
2022/04/25 05:58:53;;;;;;;;;2.00;2.00;;;;;19.24;43.30;101147.34;5112678;28;8882;-71
2022/04/25 06:01:19;;;;;;;;;2.00;2.00;;;;;19.25;43.38;101144.69;5105815;28;8784;-70
2022/04/25 06:03:44;;;;;;;;;3.00;3.00;;;;;19.26;43.23;101143.81;5092769;28;8812;-70
2022/04/25 06:06:09;;;;;;;;;1.75;1.75;;;;;19.25;43.21;101144.69;5092335;28;8784;-70
2022/04/25 06:08:38;;;;;;;;;3.25;3.00;;;;;19.23;43.14;101143.81;5092796;28;8807;-70
2022/04/25 06:11:03;;;;;;;;;2.00;2.00;;;;;19.25;43.24;101146.47;5092664;28;9272;-71
2022/04/25 06:13:28;;;;;;;;;2.00;2.00;;;;;19.26;43.40;101156.16;5101550;28;9496;-70
2022/04/25 06:15:54;;;;;;;;;2.00;2.00;;;;;19.25;43.21;101155.28;5112899;28;8761;-70
2022/04/25 06:18:20;;;;;;;;;2.00;2.00;;;;;19.25;43.12;101154.41;5112990;28;9407;-70
2022/04/25 06:20:45;;;;;;;;;1.00;1.00;;;;;19.23;43.21;101157.06;5112461;28;8807;-71
2022/04/25 06:23:10;;;;;;;;;4.00;4.00;;;;;19.21;43.33;101156.19;5112960;28;9521;-70
2022/04/25 06:25:39;;;;;;;;;2.00;2.00;;;;;19.22;43.53;101165.03;5112574;28;8788;-71
2022/04/25 06:28:04;;;;;;;;;3.00;3.00;;;;;19.25;43.43;101170.28;5112062;28;8809;-71
2022/04/25 06:30:30;;;;;;;;;3.00;2.00;;;;;19.25;43.31;101165.00;5113463;28;9610;-70
2022/04/25 06:32:57;;;;;;;;;2.50;2.50;;;;;19.22;43.38;101165.03;5112982;28;8873;-71
2022/04/25 06:35:23;;;;;;;;;2.00;2.00;;;;;19.21;43.54;101166.78;5112683;28;8793;-71
2022/04/25 06:37:49;;;;;;;;;4.00;4.00;;;;;19.23;43.52;101161.50;5112947;28;9442;-71
2022/04/25 06:40:18;;;;;;;;;4.25;3.75;;;;;19.23;43.41;101175.59;5113139;28;8762;-72
2022/04/25 06:42:44;;;;;;;;;3.00;3.00;;;;;19.20;43.40;101172.97;5112840;28;9505;-70
2022/04/25 06:45:10;;;;;;;;;3.50;2.75;;;;;19.22;43.29;101178.25;5112896;28;10218;-70
2022/04/25 06:47:35;;;;;;;;;1.25;1.25;;;;;19.21;43.60;101177.38;5112622;28;9618;-71
2022/04/25 06:50:00;;;;;;;;;4.25;4.25;;;;;19.19;43.50;101178.28;5112682;28;8782;-71
2022/04/25 06:52:26;;;;;;;;;2.25;2.25;;;;;19.21;43.32;101182.69;5112354;28;8805;-71
2022/04/25 06:54:51;;;;;;;;;3.00;3.00;;;;;19.19;43.36;101179.19;5111721;28;8813;-71
2022/04/25 06:57:17;;;;;;;;;4.00;2.00;;;;;19.22;43.69;101186.22;5112988;28;8758;-71
2022/04/25 06:59:44;;;;;;;;;3.25;3.25;;;;;19.20;43.48;101186.19;5111732;28;8770;-70
2022/04/25 07:02:10;;;;;;;;;3.00;3.00;;;;;19.21;43.54;101187.09;5097618;28;8768;-72
2022/04/25 07:04:36;;;;;;;;;4.00;4.00;;;;;19.21;43.43;101190.63;5092505;28;9861;-71
2022/04/25 07:07:01;;;;;;;;;2.00;2.00;;;;;19.21;43.72;101195.91;5092173;28;9806;-71
2022/04/25 07:09:26;;;;;;;;;3.00;3.00;;;;;19.18;43.64;101193.28;5091231;28;8776;-71
2022/04/25 07:11:52;;;;;;;;;2.75;2.00;;;;;19.21;43.45;101197.69;5092094;28;8788;-70
2022/04/25 07:14:18;;;;;;;;;0.75;0.75;;;;;19.18;43.84;101192.41;5108448;28;8813;-71
2022/04/25 07:16:48;;;;;;;;;4.25;3.00;;;;;19.18;43.82;101195.94;5111435;28;8788;-71
2022/04/25 07:19:13;;;;;;;;;2.25;2.25;;;;;19.18;43.79;101197.72;5112235;28;9635;-71
2022/04/25 07:29:51;;;;;;;;;2.75;2.50;;;;;19.21;43.61;101206.50;5111238;28;10942;-72
2022/04/25 07:32:18;;;;;;;;;2.00;2.00;;;;;19.21;43.73;101202.97;5112021;28;10441;-71
2022/04/25 07:34:43;;;;;;;;;2.50;2.50;;;;;19.19;43.76;101210.94;5111937;28;9798;-71
2022/04/25 07:37:10;;;;;;;;;2.00;2.00;;;;;19.17;43.98;101210.06;5111281;28;9694;-71
2022/04/25 07:39:35;;;;;;;;;4.00;4.00;;;;;19.18;43.96;101209.19;5112325;28;9663;-69
2022/04/25 07:42:00;;;;;;;;;2.75;2.75;;;;;19.20;43.82;101210.03;5111727;28;9533;-71
2022/04/25 07:44:26;;;;;;;;;3.00;2.00;;;;;19.19;43.73;101210.94;5111206;28;8789;-70
2022/04/25 07:46:51;;;;;;;;;3.00;3.00;;;;;19.17;43.82;101215.34;5111710;28;8888;-71
2022/04/25 07:49:17;;;;;;;;;3.00;3.00;;;;;19.18;43.80;101219.75;5111952;28;8774;-70
2022/04/25 07:51:42;;;;;;;;;4.00;3.25;;;;;19.18;43.81;101229.47;5111276;28;8799;-70
2022/04/25 07:54:11;;;;;;;;;2.75;2.75;;;;;19.16;44.03;101229.47;5111492;28;8920;-71
2022/04/25 07:56:37;;;;;;;;;3.00;3.00;;;;;19.17;43.79;101227.69;5112048;28;8786;-71
2022/04/25 07:59:05;;;;;;;;;4.00;4.00;;;;;19.17;43.83;101225.94;5110568;28;9610;-72
2022/04/25 08:01:30;;;;;;;;;2.75;2.75;;;;;19.17;43.79;101231.22;5102344;28;8816;-71
2022/04/25 08:03:56;;;;;;;;;3.00;3.00;;;;;19.17;43.83;101233.00;5090978;28;9580;-71
2022/04/25 08:06:22;;;;;;;;;3.75;2.25;;;;;19.17;43.96;101235.66;5090737;28;9535;-71
2022/04/25 08:08:49;;;;;;;;;3.00;3.00;;;;;19.16;43.84;101234.75;5091016;28;8808;-70
2022/04/25 08:11:14;;;;;;;;;3.00;3.00;;;;;19.15;44.04;101238.31;5091171;28;9542;-71
2022/04/25 08:19:07;;;;;;;;;3.00;3.00;;;;;19.16;44.10;101245.34;5110024;28;9693;-70
2022/04/25 08:21:32;;;;;;;;;3.25;2.50;;;;;19.16;44.11;101247.13;5110872;28;9701;-70
2022/04/25 08:24:01;;;;;;;;;2.00;2.00;;;;;19.14;44.18;101249.78;5110786;28;8777;-69
2022/04/25 08:26:27;;;;;;;;;3.00;3.00;;;;;19.16;43.99;101252.41;5110413;28;8761;-70
2022/04/25 08:28:54;;;;;;;;;3.00;3.00;;;;;19.16;44.12;101250.66;5111092;28;9791;-70
2022/04/25 08:31:20;;;;;;;;;2.00;2.00;;;;;19.16;43.98;101253.28;5111016;28;8770;-70
2022/04/25 08:33:46;;;;;;;;;4.25;3.75;;;;;19.15;44.21;101243.63;5110136;28;9602;-70
2022/04/25 08:36:12;;;;;;;;;2.00;2.00;;;;;19.16;44.23;101245.34;5111047;28;9543;-69
2022/04/25 08:38:40;;;;;;;;;5.00;5.00;;;;;19.14;44.05;101247.16;5111278;28;11757;-70
2022/04/25 08:41:06;;;;;;;;;2.75;2.50;;;;;19.15;44.29;101246.25;5110486;28;8789;-71
2022/04/25 08:43:32;;;;;;;;;4.00;4.00;;;;;19.15;44.12;101248.03;5110886;28;9670;-70
2022/04/25 08:45:59;;;;;;;;;3.25;3.00;;;;;19.15;44.20;101251.56;5110762;28;9789;-70
2022/04/25 08:48:26;;;;;;;;;3.00;3.00;;;;;19.15;44.16;101250.66;5109958;28;8790;-70
2022/04/25 08:50:52;;;;;;;;;2.25;2.00;;;;;19.17;44.26;101243.59;5110362;28;9527;-70
2022/04/25 08:53:19;;;;;;;;;1.75;1.75;;;;;19.15;44.31;101243.63;5110462;28;9585;-71
2022/04/25 08:55:47;;;;;;;;;3.00;3.00;;;;;19.15;44.07;101248.03;5108870;28;8813;-71
2022/04/25 08:58:13;;;;;;;;;3.75;2.75;;;;;19.16;44.27;101249.75;5110388;28;9621;-70
2022/04/25 09:00:39;;;;;;;;;3.00;3.00;;;;;19.18;44.22;101250.66;5108353;28;9692;-70
2022/04/25 09:03:04;;;;;;;;;3.25;3.25;;;;;19.16;44.24;101257.69;5089062;28;9643;-71
2022/04/25 09:05:29;;;;;;;;;2.75;2.75;;;;;19.15;44.16;101267.44;5090247;28;8767;-70
2022/04/25 09:07:55;;;;;;;;;3.00;3.00;;;;;19.15;44.09;101267.44;5089818;28;8872;-70
2022/04/25 09:10:21;;;;;;;;;4.25;4.00;;;;;19.17;43.98;101264.75;5089452;28;8771;-70
2022/04/25 09:12:48;;;;;;;;;4.00;3.00;;;;;19.16;44.03;101261.22;5093559;28;8777;-69
2022/04/25 09:15:20;;;;;;;;;3.00;3.00;;;;;19.15;44.19;101262.16;5109574;28;9661;-70
2022/04/25 09:17:46;;;;;;;;;1.75;1.75;;;;;19.16;44.20;101263.00;5113854;28;9668;-70
2022/04/25 09:20:12;;;;;;;;;3.00;3.00;;;;;19.17;44.18;101270.06;5114182;28;9555;-71
2022/04/25 09:22:40;;;;;;;;;4.25;4.25;;;;;19.16;44.06;101268.28;5113386;28;9597;-71
2022/04/25 09:25:07;;;;;;;;;5.00;3.25;;;;;19.16;44.12;101281.53;5113905;28;8793;-70
2022/04/25 09:27:32;;;;;;;;;5.00;5.00;;;;;19.16;44.22;101286.81;5114320;28;9605;-70
2022/04/25 09:30:13;;;;;;;;;3.25;3.25;;;;;19.17;44.37;101296.53;5113331;28;9600;-70
2022/04/25 09:32:38;;;;;;;;;6.00;5.00;;;;;19.17;44.16;101293.88;5114074;28;8788;-70
2022/04/25 09:35:40;;;;;;;;;4.00;4.00;;;;;19.17;44.13;101299.16;5113595;28;9825;-70
2022/04/25 09:38:06;;;;;;;;;3.75;3.50;;;;;19.17;44.18;101299.16;5113201;28;8774;-70
2022/04/25 09:40:33;;;;;;;;;2.75;2.75;;;;;19.16;44.38;101310.63;5113833;28;9886;-71
2022/04/25 09:43:14;;;;;;;;;5.75;4.00;;;;;19.15;44.19;101304.50;5113330;28;9654;-71
2022/04/25 09:45:42;;;;;;;;;3.00;3.00;;;;;19.15;44.27;101298.31;5113578;28;10009;-71
2022/04/25 09:48:16;;;;;;;;;4.00;4.00;;;;;19.16;44.23;101302.69;5113556;28;9689;-71
2022/04/25 09:50:59;;;;;;;;;4.25;4.25;;;;;19.15;44.21;101308.91;5113203;28;9782;-70
2022/04/25 09:53:54;;;;;;;;;3.00;3.00;;;;;19.15;44.48;101306.25;5113333;28;10436;-70
2022/04/25 09:56:21;;;;;;;;;4.00;3.25;;;;;19.16;44.43;101302.69;5113350;28;9844;-71
2022/04/25 09:59:06;;;;;;;;;5.00;5.00;;;;;19.14;44.38;101305.38;5112644;28;9758;-70
2022/04/25 10:01:34;;;;;;;;;4.00;4.00;;;;;19.14;44.65;101310.66;5103806;28;9777;-70
2022/04/25 10:04:00;;;;;;;;;2.00;2.00;;;;;19.16;44.44;101310.63;5092809;28;9613;-71
2022/04/25 10:06:34;;;;;;;;;2.00;2.00;;;;;19.16;44.33;101310.63;5092139;28;9639;-70
2022/04/25 10:09:05;;;;;;;;;4.00;3.50;;;;;19.16;44.38;101308.88;5092841;28;9533;-70
2022/04/25 10:11:38;;;;;;;;;3.50;3.00;;;;;19.17;44.32;101310.66;5092021;28;10459;-70
2022/04/25 10:14:07;;;;;;;;;4.00;4.00;;;;;19.17;44.31;101313.28;5106623;28;9698;-70
2022/04/25 10:16:34;;;;;;;;;4.00;4.00;;;;;19.16;44.32;101314.16;5112967;28;9524;-69
2022/04/25 10:18:59;;;;;;;;;4.00;3.25;;;;;19.15;44.61;101317.72;5111798;28;9634;-70
2022/04/25 10:21:29;;;;;;;;;3.00;3.00;;;;;19.16;44.31;101319.47;5113282;28;9655;-70
2022/04/25 10:23:55;;;;;;;;;4.50;4.25;;;;;19.18;44.52;101319.47;5112713;28;8784;-70
2022/04/25 10:26:26;;;;;;;;;3.00;3.00;;;;;19.15;44.54;101314.19;5112225;28;9594;-69
2022/04/25 10:28:55;;;;;;;;;4.50;4.50;;;;;19.15;44.30;101323.03;5111473;28;9560;-70
2022/04/25 10:31:28;;;;;;;;;3.50;3.50;;;;;19.16;44.26;101323.88;5112587;28;9894;-71
2022/04/25 10:33:58;;;;;;;;;3.25;3.25;;;;;19.16;44.40;101321.22;5111497;28;10448;-70
2022/04/25 10:36:38;;;;;;;;;3.00;3.00;;;;;19.17;44.52;101326.53;5112755;28;9609;-70
2022/04/25 10:39:17;;;;;;;;;6.25;4.00;;;;;19.15;44.60;101323.03;5112346;28;9640;-70
2022/04/25 10:44:44;;;;;;;;;4.00;3.25;;;;;19.16;44.50;101335.34;5112539;28;9658;-70
2022/04/25 10:47:28;;;;;;;;;4.00;3.00;;;;;19.16;44.50;101347.69;5111970;28;9789;-70
2022/04/25 10:49:53;;;;;;;;;3.00;3.00;;;;;19.15;44.45;101348.59;5112485;28;9579;-70
2022/04/25 10:52:34;;;;;;;;;4.00;3.50;;;;;19.15;44.59;101348.59;5112144;28;9672;-70
2022/04/25 10:55:14;;;;;;;;;3.00;3.00;;;;;19.15;44.58;101353.91;5111421;28;8823;-70
2022/04/25 10:58:01;;;;;;;;;2.50;2.25;;;;;19.17;44.77;101362.69;5112301;28;9686;-70
2022/04/25 11:00:36;;;;;;;;;4.00;4.00;;;;;19.16;44.45;101356.53;5112054;28;9690;-70
2022/04/25 11:03:04;;;;;;;;;3.75;3.75;;;;;19.16;44.59;101360.94;5091403;28;9687;-70
2022/04/25 11:05:29;;;;;;;;;3.00;2.75;;;;;19.15;44.70;101359.19;5091807;28;9764;-70
2022/04/25 11:08:21;;;;;;;;;5.00;5.00;;;;;19.15;44.58;101373.31;5090666;28;10635;-70
2022/04/25 11:10:51;;;;;;;;;4.00;4.00;;;;;19.15;44.53;101364.50;5091180;28;8779;-70
2022/04/25 11:13:18;;;;;;;;;4.00;4.00;;;;;19.15;44.73;101362.72;5099312;28;9625;-70
2022/04/25 11:15:46;;;;;;;;;4.50;4.25;;;;;19.14;44.54;101363.59;5111189;28;10482;-69
2022/04/25 11:18:21;;;;;;;;;3.00;3.00;;;;;19.14;44.81;101373.31;5111604;28;9653;-70
2022/04/25 11:21:05;;;;;;;;;4.50;4.50;;;;;19.14;44.75;101379.50;5111542;28;9697;-70
2022/04/25 11:23:32;;;;;;;;;2.75;2.50;;;;;19.14;44.71;101379.50;5111164;28;9555;-70
2022/04/25 11:25:59;;;;;;;;;4.00;3.50;;;;;19.14;44.71;101370.66;5111524;28;9627;-70
2022/04/25 11:28:26;;;;;;;;;4.00;4.00;;;;;19.13;44.82;101376.84;5111708;28;9721;-71
2022/04/25 11:31:13;;;;;;;;;4.50;3.25;;;;;19.13;44.78;101380.38;5110512;28;9704;-70
2022/04/25 11:33:47;;;;;;;;;5.00;5.00;;;;;19.14;44.60;101384.78;5111400;28;9627;-70
2022/04/25 11:36:13;;;;;;;;;5.25;5.25;;;;;19.13;44.66;101383.00;5110811;28;10116;-69
2022/04/25 11:41:23;;;;;;;;;4.00;4.00;;;;;19.13;44.74;101384.78;5111414;28;8778;-70
2022/04/25 11:43:48;;;;;;;;;3.00;3.00;;;;;19.14;44.87;101391.84;5110514;28;9626;-70
2022/04/25 11:46:14;;;;;;;;;3.00;3.00;;;;;19.14;44.78;101391.84;5111549;28;8781;-70
2022/04/25 11:48:40;;;;;;;;;4.00;4.00;;;;;19.13;44.91;101390.97;5111421;28;8773;-70
2022/04/25 11:51:05;;;;;;;;;3.00;3.00;;;;;19.14;44.63;101387.44;5110519;28;9709;-71
2022/04/25 11:53:34;;;;;;;;;2.25;2.25;;;;;19.13;44.65;101390.06;5111222;28;8809;-70
2022/04/25 11:56:12;;;;;;;;;4.00;4.00;;;;;19.14;44.54;101391.84;5111010;28;8774;-71
2022/04/25 11:58:37;;;;;;;;;4.25;4.25;;;;;19.14;44.83;101394.50;5110340;28;9618;-70
2022/04/25 12:01:02;;;;;;;;;4.50;4.50;;;;;19.12;44.99;101386.53;5105106;28;9700;-70
2022/04/25 12:03:30;;;;;;;;;3.00;3.00;;;;;19.14;44.59;101399.78;5090938;28;8924;-70
2022/04/25 12:06:07;;;;;;;;;5.25;4.75;;;;;19.16;44.81;101400.63;5089463;28;9514;-70
2022/04/25 12:16:44;;;;;;;;;4.00;4.00;;;;;19.14;44.88;101419.19;5110673;28;10311;-70